createdAt,value
2018-04-14T00:02:01.497Z,96.83
2018-04-14T00:04:29.081Z,96.76
2018-04-14T00:06:56.692Z,96.27
2018-04-14T00:09:24.276Z,96.63
2018-04-14T00:11:51.922Z,97.22
2018-04-14T00:14:19.583Z,97.29
2018-04-14T00:16:47.255Z,97.43
2018-04-14T00:19:14.844Z,97.57
2018-04-14T00:21:42.472Z,97.66
2018-04-14T00:24:10.089Z,97.44
2018-04-14T00:26:37.711Z,97.42
2018-04-14T00:29:05.892Z,97.30
2018-04-14T00:31:33.524Z,97.30
2018-04-14T00:34:01.106Z,97.40
2018-04-14T00:36:29.319Z,97.34
2018-04-14T00:38:56.902Z,97.65
2018-04-14T00:41:24.490Z,97.55
2018-04-14T00:43:52.112Z,97.97
2018-04-14T00:46:19.698Z,98.20
2018-04-14T00:48:47.345Z,98.18
2018-04-14T00:51:14.938Z,98.31
2018-04-14T00:53:48.583Z,97.64
2018-04-14T00:56:16.201Z,97.93
2018-04-14T00:58:43.789Z,97.80
2018-04-14T01:01:11.374Z,97.89
2018-04-14T01:03:38.958Z,97.78
2018-04-14T01:06:06.541Z,97.68
2018-04-14T01:08:34.125Z,98.01
2018-04-14T01:11:01.755Z,98.12
2018-04-14T01:13:29.386Z,97.99
2018-04-14T01:15:56.974Z,98.46
2018-04-14T01:18:24.556Z,97.96
2018-04-14T01:20:52.141Z,98.21
2018-04-14T01:23:19.883Z,98.22
2018-04-14T01:25:47.470Z,98.13
2018-04-14T01:28:15.056Z,97.51
2018-04-14T01:30:42.640Z,98.11
2018-04-14T01:33:10.252Z,97.89
2018-04-14T01:35:37.841Z,98.03
2018-04-14T01:38:06.293Z,97.81
2018-04-14T01:40:34.650Z,98.01
2018-04-14T01:43:02.984Z,97.97
2018-04-14T01:45:30.570Z,97.98
2018-04-14T01:47:58.157Z,98.14
2018-04-14T01:50:25.739Z,98.12
2018-04-14T01:52:53.353Z,97.62
2018-04-14T01:55:20.957Z,97.81
2018-04-14T01:57:48.580Z,97.63
2018-04-14T02:00:16.186Z,98.07
2018-04-14T02:05:17.593Z,97.44
2018-04-14T02:07:45.203Z,97.78
2018-04-14T02:10:12.785Z,97.87
2018-04-14T02:12:40.398Z,98.27
2018-04-14T02:15:07.983Z,98.22
2018-04-14T02:17:35.596Z,98.56
2018-04-14T02:20:03.186Z,98.36
2018-04-14T02:22:30.805Z,97.68
2018-04-14T02:24:58.390Z,97.74
2018-04-14T02:27:25.992Z,97.86
2018-04-14T02:29:53.616Z,98.15
2018-04-14T02:32:22.178Z,98.35
2018-04-14T02:34:49.769Z,98.13
2018-04-14T02:37:17.405Z,98.41
2018-04-14T02:39:45.017Z,98.46
2018-04-14T02:42:12.607Z,98.43
2018-04-14T02:44:40.213Z,98.78
2018-04-14T02:47:07.802Z,98.97
2018-04-14T02:49:35.445Z,98.49
2018-04-14T02:52:03.025Z,98.52
2018-04-14T02:54:30.876Z,98.20
2018-04-14T02:56:58.496Z,98.26
2018-04-14T02:59:26.077Z,98.70
2018-04-14T03:01:53.657Z,98.73
2018-04-14T03:04:22.009Z,98.71
2018-04-14T03:06:49.601Z,98.54
2018-04-14T03:09:17.284Z,98.23
2018-04-14T03:11:44.867Z,98.14
2018-04-14T03:14:13.401Z,98.27
2018-04-14T03:16:40.981Z,98.23
2018-04-14T03:19:08.563Z,98.71
2018-04-14T03:21:36.148Z,98.42
2018-04-14T03:24:03.734Z,98.39
2018-04-14T03:26:31.319Z,98.44
2018-04-14T03:28:58.898Z,98.35
2018-04-14T03:31:26.491Z,98.61
2018-04-14T03:33:54.109Z,98.65
2018-04-14T03:36:21.753Z,98.77
2018-04-14T03:38:49.381Z,98.26
2018-04-14T03:41:17.089Z,98.09
2018-04-14T03:43:44.670Z,97.40
2018-04-14T03:46:12.248Z,97.33
2018-04-14T03:48:39.824Z,97.43
2018-04-14T03:51:07.461Z,97.35
2018-04-14T03:53:35.081Z,97.56
2018-04-14T03:56:02.886Z,97.49
2018-04-14T03:58:30.470Z,97.82
2018-04-14T04:00:58.049Z,97.14
2018-04-14T04:03:25.634Z,97.25
2018-04-14T04:05:53.277Z,97.16
2018-04-14T04:08:21.016Z,97.14
2018-04-14T04:10:48.597Z,97.44
2018-04-14T04:13:16.174Z,96.82
2018-04-14T04:15:43.817Z,96.89
2018-04-14T04:18:11.364Z,96.70
2018-04-14T04:20:57.881Z,96.49
2018-04-14T04:23:37.290Z,96.99
2018-04-14T04:26:04.936Z,97.21
2018-04-14T04:28:33.369Z,97.35
2018-04-14T04:31:01.926Z,97.10
2018-04-14T04:33:29.510Z,97.09
2018-04-14T04:35:57.093Z,96.94
2018-04-14T04:38:25.585Z,96.46
2018-04-14T04:40:53.172Z,96.61
2018-04-14T04:43:22.019Z,96.89
2018-04-14T04:45:49.638Z,97.06
2018-04-14T04:48:18.133Z,97.11
2018-04-14T04:50:45.714Z,96.98
2018-04-14T04:53:13.332Z,97.06
2018-04-14T04:55:40.942Z,97.33
2018-04-14T04:58:08.538Z,97.51
2018-04-14T05:00:36.121Z,97.09
2018-04-14T05:03:03.704Z,97.03
2018-04-14T05:05:31.289Z,96.77
2018-04-14T05:07:58.907Z,96.69
2018-04-14T05:10:26.509Z,96.72
2018-04-14T05:12:54.892Z,96.41
2018-04-14T05:15:23.253Z,96.80
2018-04-14T05:17:50.871Z,97.04
2018-04-14T05:20:18.456Z,96.47
2018-04-14T05:22:46.088Z,97.07
2018-04-14T05:25:13.709Z,96.75
2018-04-14T05:27:41.291Z,96.70
2018-04-14T05:30:08.928Z,96.35
2018-04-14T05:32:36.525Z,95.93
2018-04-14T05:35:04.193Z,96.15
2018-04-14T05:37:31.781Z,96.11
2018-04-14T05:39:59.397Z,96.29
2018-04-14T05:42:27.004Z,96.70
2018-04-14T05:44:54.647Z,96.23
2018-04-14T05:47:23.194Z,96.67
2018-04-14T05:49:50.784Z,97.19
2018-04-14T05:52:18.365Z,96.93
2018-04-14T05:54:45.949Z,96.92
2018-04-14T05:57:13.537Z,96.46
2018-04-14T05:59:41.196Z,96.25
2018-04-14T06:02:08.761Z,95.99
2018-04-14T06:04:36.377Z,95.91
2018-04-14T06:07:03.961Z,95.70
2018-04-14T06:09:31.582Z,95.87
2018-04-14T06:11:59.171Z,95.78
2018-04-14T06:14:26.792Z,95.95
2018-04-14T06:16:55.317Z,95.41
2018-04-14T06:19:22.897Z,95.17
2018-04-14T06:21:51.371Z,95.46
2018-04-14T06:24:18.949Z,94.34
2018-04-14T06:26:46.534Z,94.63
2018-04-14T06:29:14.173Z,94.73
2018-04-14T06:31:41.777Z,94.33
2018-04-14T06:34:09.367Z,94.38
2018-04-14T06:36:36.948Z,93.87
2018-04-14T06:39:04.530Z,93.20
2018-04-14T06:41:32.160Z,93.20
2018-04-14T06:43:59.753Z,92.99
2018-04-14T06:46:27.385Z,93.03
2018-04-14T06:48:54.989Z,92.30
2018-04-14T06:51:22.576Z,91.24
2018-04-14T06:53:50.937Z,92.52
2018-04-14T06:56:18.517Z,91.65
2018-04-14T06:58:46.104Z,91.93
2018-04-14T07:01:13.690Z,92.38
2018-04-14T07:03:41.310Z,92.14
2018-04-14T07:06:08.901Z,92.87
2018-04-14T07:08:36.514Z,92.33
2018-04-14T07:11:04.101Z,92.26
2018-04-14T07:13:32.064Z,92.28
2018-04-14T07:15:59.649Z,93.42
2018-04-14T07:18:27.506Z,93.67
2018-04-14T07:20:55.086Z,94.07
2018-04-14T07:23:22.691Z,93.88
2018-04-14T07:25:50.309Z,94.12
2018-04-14T07:28:17.925Z,94.32
2018-04-14T07:30:45.512Z,94.12
2018-04-14T07:33:13.225Z,92.30
2018-04-14T07:35:40.914Z,93.42
2018-04-14T07:38:08.500Z,92.23
2018-04-14T07:40:36.085Z,91.16
2018-04-14T07:43:03.815Z,90.97
2018-04-14T07:45:31.516Z,90.04
2018-04-14T07:47:59.106Z,90.23
2018-04-14T07:50:26.961Z,91.09
2018-04-14T07:52:54.549Z,90.28
2018-04-14T07:55:22.185Z,90.69
2018-04-14T07:57:49.851Z,88.65
2018-04-14T08:00:17.440Z,87.78
2018-04-14T08:02:45.061Z,86.60
2018-04-14T08:05:12.730Z,87.96
2018-04-14T08:07:40.936Z,88.19
2018-04-14T08:10:08.585Z,86.67
2018-04-14T08:12:36.258Z,85.73
2018-04-14T08:15:03.865Z,86.61
2018-04-14T08:17:32.624Z,80.95
2018-04-14T08:20:00.206Z,82.66
2018-04-14T08:22:27.861Z,83.18
2018-04-14T08:24:55.441Z,82.80
2018-04-14T08:27:23.129Z,84.50
2018-04-14T08:29:50.761Z,83.87
2018-04-14T08:32:18.349Z,80.47
2018-04-14T08:34:45.933Z,82.16
2018-04-14T08:37:14.307Z,84.46
2018-04-14T08:39:41.867Z,79.23
2018-04-14T08:42:09.513Z,81.42
2018-04-14T08:44:37.454Z,82.39
2018-04-14T08:47:05.834Z,81.17
2018-04-14T08:49:33.990Z,82.71
2018-04-14T08:52:02.046Z,79.53
2018-04-14T08:54:30.684Z,81.61
2018-04-14T08:56:58.353Z,81.02
2018-04-14T08:59:26.562Z,80.87
2018-04-14T09:01:55.721Z,79.61
2018-04-14T09:04:23.398Z,79.16
2018-04-14T09:06:51.069Z,79.04
2018-04-14T09:09:18.909Z,74.39
2018-04-14T09:11:47.667Z,74.55
2018-04-14T09:14:16.333Z,74.96
2018-04-14T09:16:44.069Z,76.20
2018-04-14T09:19:11.806Z,75.56
2018-04-14T09:21:40.313Z,76.03
2018-04-14T09:24:07.894Z,74.81
2018-04-14T09:26:35.501Z,69.78
2018-04-14T09:29:04.870Z,70.83
2018-04-14T09:31:33.331Z,72.52
2018-04-14T09:34:00.913Z,77.21
2018-04-14T09:36:29.733Z,75.32
2018-04-14T09:38:57.450Z,68.37
2018-04-14T09:41:25.706Z,71.87
2018-04-14T09:43:53.285Z,74.22
2018-04-14T09:46:21.758Z,72.09
2018-04-14T09:48:50.275Z,70.61
2018-04-14T09:51:17.857Z,69.65
2018-04-14T09:53:45.437Z,66.93
2018-04-14T09:56:13.124Z,66.55
2018-04-14T09:58:40.705Z,69.95
2018-04-14T10:01:14.881Z,65.16
2018-04-14T10:03:48.075Z,67.08
2018-04-14T10:06:15.660Z,65.34
2018-04-14T10:08:44.077Z,61.71
2018-04-14T10:11:11.672Z,63.73
2018-04-14T10:13:39.257Z,64.38
2018-04-14T10:16:06.849Z,64.45
2018-04-14T10:18:34.437Z,62.74
2018-04-14T10:21:02.017Z,62.31
2018-04-14T10:23:29.638Z,61.13
2018-04-14T10:25:57.249Z,65.68
2018-04-14T10:28:24.837Z,64.77
2018-04-14T10:30:52.528Z,63.56
2018-04-14T10:33:20.209Z,60.78
2018-04-14T10:35:47.793Z,61.37
2018-04-14T10:38:15.417Z,62.76
2018-04-14T10:40:43.000Z,60.19
2018-04-14T10:43:10.585Z,63.17
2018-04-14T10:45:38.203Z,59.88
2018-04-14T10:48:05.801Z,58.51
2018-04-14T10:50:33.389Z,56.94
2018-04-14T10:53:01.055Z,59.38
2018-04-14T10:55:28.673Z,58.46
2018-04-14T10:57:56.252Z,62.55
2018-04-14T11:00:23.862Z,61.59
2018-04-14T11:02:51.507Z,60.49
2018-04-14T11:05:19.086Z,60.49
2018-04-14T11:07:46.699Z,60.61
2018-04-14T11:10:15.222Z,60.92
2018-04-14T11:12:42.867Z,63.42
2018-04-14T11:15:10.466Z,61.46
2018-04-14T11:17:38.062Z,55.79
2018-04-14T11:20:05.649Z,61.55
2018-04-14T11:22:33.313Z,60.98
2018-04-14T11:25:00.980Z,61.08
2018-04-14T11:27:28.651Z,59.83
2018-04-14T11:29:56.239Z,61.02
2018-04-14T11:32:24.635Z,59.61
2018-04-14T11:34:52.250Z,63.81
2018-04-14T11:37:20.761Z,62.50
2018-04-14T11:39:49.290Z,62.97
2018-04-14T11:42:16.906Z,61.58
2018-04-14T11:44:44.491Z,59.74
2018-04-14T11:47:12.077Z,62.08
2018-04-14T11:49:39.754Z,60.14
2018-04-14T11:52:07.366Z,59.51
2018-04-14T11:54:34.952Z,58.34
2018-04-14T11:57:02.535Z,58.53
2018-04-14T11:59:30.206Z,56.53
2018-04-14T12:01:57.797Z,59.37
2018-04-14T12:04:25.377Z,57.13
2018-04-14T12:06:52.997Z,58.60
2018-04-14T12:09:20.657Z,56.01
2018-04-14T12:11:48.237Z,56.29
2018-04-14T12:14:16.694Z,58.82
2018-04-14T12:16:45.053Z,57.94
2018-04-14T12:19:12.637Z,55.85
2018-04-14T12:21:41.069Z,57.27
2018-04-14T12:24:08.682Z,55.19
2018-04-14T12:26:36.337Z,55.53
2018-04-14T12:29:03.918Z,54.73
2018-04-14T12:31:31.525Z,55.93
2018-04-14T12:33:59.109Z,54.65
2018-04-14T12:36:26.721Z,55.53
2018-04-14T12:38:54.353Z,54.33
2018-04-14T12:41:21.935Z,55.36
2018-04-14T12:43:49.526Z,53.31
2018-04-14T12:46:17.130Z,52.46
2018-04-14T12:48:44.714Z,52.37
2018-04-14T12:51:12.409Z,53.53
2018-04-14T12:53:39.996Z,55.81
2018-04-14T12:56:07.735Z,55.71
2018-04-14T12:58:35.317Z,56.29
2018-04-14T13:01:02.909Z,56.08
2018-04-14T13:03:30.485Z,53.92
2018-04-14T13:05:58.138Z,57.44
2018-04-14T13:08:25.725Z,60.14
2018-04-14T13:10:54.082Z,62.94
2018-04-14T13:13:21.657Z,63.39
2018-04-14T13:15:49.293Z,66.17
2018-04-14T13:18:16.873Z,67.30
2018-04-14T13:20:45.438Z,66.29
2018-04-14T13:23:13.018Z,66.91
2018-04-14T13:25:40.613Z,66.70
2018-04-14T13:28:08.882Z,68.15
2018-04-14T13:30:37.229Z,69.22
2018-04-14T13:33:04.818Z,71.46
2018-04-14T13:35:32.495Z,71.82
2018-04-14T13:38:00.072Z,74.50
2018-04-14T13:40:27.690Z,74.48
2018-04-14T13:42:55.273Z,75.63
2018-04-14T13:45:22.893Z,75.45
2018-04-14T13:47:50.549Z,74.23
2018-04-14T13:50:18.139Z,73.70
2018-04-14T13:52:47.077Z,73.38
2018-04-14T13:55:14.692Z,72.99
2018-04-14T13:57:42.280Z,71.01
2018-04-14T14:00:09.909Z,70.43
2018-04-14T14:02:37.566Z,71.35
2018-04-14T14:05:05.149Z,69.94
2018-04-14T14:07:32.761Z,68.78
2018-04-14T14:10:00.342Z,67.12
2018-04-14T14:12:27.978Z,68.34
2018-04-14T14:14:55.569Z,68.46
2018-04-14T14:17:23.241Z,66.44
2018-04-14T14:19:50.858Z,65.42
2018-04-14T14:22:18.449Z,64.49
2018-04-14T14:24:46.977Z,63.21
2018-04-14T14:27:15.581Z,63.56
2018-04-14T14:29:43.165Z,60.35
2018-04-14T14:32:11.346Z,61.92
2018-04-14T14:34:39.849Z,62.25
2018-04-14T14:37:07.499Z,62.61
2018-04-14T14:39:35.907Z,61.35
2018-04-14T14:42:04.221Z,62.47
2018-04-14T14:44:32.685Z,59.35
2018-04-14T14:47:00.315Z,60.73
2018-04-14T14:49:27.937Z,60.68
2018-04-14T14:51:55.645Z,61.47
2018-04-14T14:54:24.380Z,62.93
2018-04-14T14:56:52.805Z,64.83
2018-04-14T14:59:20.409Z,64.48
2018-04-14T15:01:47.993Z,63.22
2018-04-14T15:04:15.578Z,64.14
2018-04-14T15:06:43.254Z,59.46
2018-04-14T15:09:10.884Z,60.04
2018-04-14T15:11:39.436Z,58.78
2018-04-14T15:14:07.917Z,60.32
2018-04-14T15:16:35.534Z,60.67
2018-04-14T15:19:03.164Z,62.27
2018-04-14T15:21:31.642Z,63.97
2018-04-14T15:24:00.245Z,62.31
2018-04-14T15:26:28.547Z,65.23
2018-04-14T15:28:56.181Z,60.38
2018-04-14T15:31:23.881Z,60.56
2018-04-14T15:33:51.535Z,56.81
2018-04-14T15:36:19.200Z,57.62
2018-04-14T15:38:46.789Z,57.41
2018-04-14T15:41:14.427Z,56.45
2018-04-14T15:43:42.125Z,55.80
2018-04-14T15:46:09.752Z,58.78
2018-04-14T15:48:56.412Z,59.40
2018-04-14T15:51:23.997Z,59.93
2018-04-14T15:53:51.587Z,59.01
2018-04-14T15:56:19.171Z,58.48
2018-04-14T15:58:46.843Z,60.22
2018-04-14T16:01:14.505Z,60.77
2018-04-14T16:03:44.725Z,61.08
2018-04-14T16:06:09.974Z,60.79
2018-04-14T16:08:37.566Z,60.45
2018-04-14T16:11:05.962Z,61.77
2018-04-14T16:13:33.555Z,60.20
2018-04-14T16:16:01.681Z,61.31
2018-04-14T16:18:29.272Z,60.90
2018-04-14T16:20:57.788Z,60.99
2018-04-14T16:23:25.374Z,61.34
2018-04-14T16:25:52.963Z,62.15
2018-04-14T16:28:20.578Z,64.34
2018-04-14T16:30:48.221Z,63.42
2018-04-14T16:33:15.932Z,66.16
2018-04-14T16:35:43.572Z,64.67
2018-04-14T16:38:11.266Z,65.94
2018-04-14T16:40:38.850Z,65.26
2018-04-14T16:43:06.617Z,66.46
2018-04-14T16:45:34.296Z,68.54
2018-04-14T16:48:01.888Z,66.92
2018-04-14T16:50:29.509Z,66.54
2018-04-14T16:52:57.387Z,66.88
2018-04-14T16:55:24.976Z,68.31
2018-04-14T16:57:53.030Z,69.65
2018-04-14T17:00:20.619Z,70.54
2018-04-14T17:02:48.265Z,71.59
2018-04-14T17:05:15.862Z,71.35
2018-04-14T17:07:43.492Z,71.44
2018-04-14T17:10:11.112Z,72.47
2018-04-14T17:12:38.693Z,72.94
2018-04-14T17:15:06.278Z,72.32
2018-04-14T17:17:33.882Z,72.83
2018-04-14T17:20:01.474Z,72.92
2018-04-14T17:22:29.178Z,75.57
2018-04-14T17:24:56.969Z,76.51
2018-04-14T17:27:24.554Z,77.04
2018-04-14T17:29:52.917Z,78.56
2018-04-14T17:32:20.503Z,78.65
2018-04-14T17:34:49.849Z,78.26
2018-04-14T17:37:17.430Z,78.68
2018-04-14T17:39:45.022Z,77.87
2018-04-14T17:42:12.683Z,77.57
2018-04-14T17:44:40.269Z,77.77
2018-04-14T17:47:07.898Z,78.70
2018-04-14T17:49:36.396Z,79.35
2018-04-14T17:52:04.047Z,79.83
2018-04-14T17:54:31.678Z,81.45
2018-04-14T17:56:59.326Z,82.37
2018-04-14T17:59:26.972Z,82.60
2018-04-14T18:01:54.609Z,82.86
2018-04-14T18:04:22.205Z,82.89
2018-04-14T18:06:49.794Z,83.50
2018-04-14T18:09:17.382Z,84.01
2018-04-14T18:11:45.057Z,84.19
2018-04-14T18:14:12.640Z,84.77
2018-04-14T18:16:40.431Z,84.85
2018-04-14T18:19:08.071Z,84.99
2018-04-14T18:21:35.752Z,85.23
2018-04-14T18:24:03.372Z,86.03
2018-04-14T18:26:30.973Z,86.03
2018-04-14T18:28:58.632Z,86.76
2018-04-14T18:31:26.298Z,87.39
2018-04-14T18:33:53.897Z,87.26
2018-04-14T18:36:21.601Z,87.31
2018-04-14T18:38:49.186Z,87.81
2018-04-14T18:41:16.794Z,88.50
2018-04-14T18:43:44.410Z,88.71
2018-04-14T18:46:12.034Z,88.42
2018-04-14T18:48:39.627Z,88.29
2018-04-14T18:51:07.688Z,88.54
2018-04-14T18:53:35.304Z,88.70
2018-04-14T18:56:02.933Z,88.89
2018-04-14T18:58:30.703Z,89.58
2018-04-14T19:00:58.303Z,89.97
2018-04-14T19:03:25.964Z,90.50
2018-04-14T19:05:53.575Z,90.33
2018-04-14T19:08:21.217Z,90.75
2018-04-14T19:10:49.589Z,90.66
2018-04-14T19:13:17.238Z,90.74
2018-04-14T19:15:44.829Z,90.75
2018-04-14T19:18:12.419Z,90.98
2018-04-14T19:20:40.002Z,91.31
2018-04-14T19:23:07.589Z,91.70
2018-04-14T19:25:35.178Z,91.61
2018-04-14T19:28:02.762Z,91.65
2018-04-14T19:30:30.347Z,91.76
2018-04-14T19:32:58.029Z,91.83
2018-04-14T19:35:25.626Z,92.45
2018-04-14T19:37:53.273Z,92.67
2018-04-14T19:40:20.909Z,93.29
2018-04-14T19:42:48.503Z,93.14
2018-04-14T19:45:16.685Z,92.98
2018-04-14T19:47:44.282Z,92.96
2018-04-14T19:50:11.869Z,93.56
2018-04-14T19:52:39.463Z,94.33
2018-04-14T19:55:07.054Z,94.12
2018-04-14T19:57:34.695Z,93.75
2018-04-14T20:00:02.334Z,93.84
2018-04-14T20:02:29.935Z,94.03
2018-04-14T20:04:57.518Z,94.00
2018-04-14T20:07:25.977Z,94.04
2018-04-14T20:09:53.598Z,93.96
2018-04-14T20:12:23.220Z,94.17
2018-04-14T20:14:51.966Z,93.92
2018-04-14T20:17:20.468Z,93.98
2018-04-14T20:19:49.604Z,94.43
2018-04-14T20:22:18.809Z,95.42
2018-04-14T20:24:47.654Z,95.42
2018-04-14T20:27:16.881Z,95.70
2018-04-14T20:29:45.659Z,95.46
2018-04-14T20:32:14.547Z,95.14
2018-04-14T20:34:43.134Z,94.94
2018-04-14T20:37:11.612Z,94.89
2018-04-14T20:39:40.422Z,95.20
2018-04-14T20:42:08.891Z,95.18
2018-04-14T20:44:38.405Z,95.32
2018-04-14T20:47:07.289Z,95.64
2018-04-14T20:49:36.270Z,95.58
2018-04-14T20:52:05.728Z,95.45
2018-04-14T20:54:35.262Z,95.60
2018-04-14T20:57:03.836Z,96.01
2018-04-14T20:59:32.448Z,96.37
2018-04-14T21:02:01.260Z,96.42
2018-04-14T21:04:30.435Z,96.11
2018-04-14T21:06:59.162Z,96.06
2018-04-14T21:09:27.839Z,96.16
2018-04-14T21:11:56.221Z,96.88
2018-04-14T21:14:25.051Z,96.75
2018-04-14T21:16:54.692Z,96.45
2018-04-14T21:19:23.558Z,96.26
2018-04-14T21:21:52.236Z,96.26
2018-04-14T21:24:21.211Z,96.70
2018-04-14T21:26:50.187Z,96.51
2018-04-14T21:29:18.944Z,96.37
2018-04-14T21:31:47.466Z,96.20
2018-04-14T21:34:16.382Z,96.23
2018-04-14T21:36:44.859Z,95.94
2018-04-14T21:39:13.705Z,96.03
2018-04-14T21:41:42.677Z,95.93
2018-04-14T21:44:11.529Z,98.00
2018-04-14T21:46:40.929Z,97.45
2018-04-14T21:49:09.744Z,96.94
2018-04-14T21:51:38.790Z,97.16
2018-04-14T21:54:07.768Z,97.54
2018-04-14T21:56:36.775Z,97.73
2018-04-14T21:59:06.486Z,97.73
2018-04-14T22:01:34.975Z,97.54
2018-04-14T22:04:03.867Z,98.98
2018-04-14T22:06:33.955Z,99.41
2018-04-14T22:09:02.842Z,99.08
2018-04-14T22:11:31.455Z,98.62
2018-04-14T22:13:59.114Z,98.52
2018-04-14T22:16:26.969Z,98.10
2018-04-14T22:18:54.582Z,97.89
2018-04-14T22:21:22.326Z,97.73
2018-04-14T22:23:49.959Z,97.75
2018-04-14T22:26:18.549Z,97.52
2018-04-14T22:28:47.036Z,97.45
2018-04-14T22:31:14.616Z,97.34
2018-04-14T22:33:42.799Z,97.47
2018-04-14T22:36:10.389Z,97.52
2018-04-14T22:38:38.051Z,98.97
2018-04-14T22:41:05.685Z,98.77
2018-04-14T22:43:33.345Z,98.15
2018-04-14T22:46:00.941Z,97.63
2018-04-14T22:48:28.534Z,98.71
2018-04-14T22:50:56.125Z,98.76
2018-04-14T22:53:23.720Z,98.61
2018-04-14T22:55:51.305Z,98.33
2018-04-14T22:58:18.908Z,98.42
2018-04-14T23:00:46.594Z,98.73
2018-04-14T23:03:14.172Z,98.24
2018-04-14T23:05:41.817Z,98.31
2018-04-14T23:08:09.465Z,98.01
2018-04-14T23:10:37.086Z,97.78
2018-04-14T23:13:04.677Z,97.42
2018-04-14T23:15:32.409Z,97.64
2018-04-14T23:17:59.999Z,97.81
2018-04-14T23:20:27.585Z,98.09
2018-04-14T23:22:55.181Z,98.17
2018-04-14T23:25:22.814Z,98.23
2018-04-14T23:27:50.433Z,98.06
2018-04-14T23:30:18.086Z,98.01
2018-04-14T23:32:45.697Z,98.42
2018-04-14T23:35:13.286Z,98.57
2018-04-14T23:37:40.903Z,98.43
2018-04-14T23:40:08.534Z,98.12
2018-04-14T23:42:36.113Z,97.99
2018-04-14T23:45:03.757Z,98.01
2018-04-14T23:47:32.245Z,97.71
2018-04-14T23:50:00.772Z,97.62
2018-04-14T23:52:28.357Z,97.83
2018-04-14T23:54:55.970Z,99.25
2018-04-14T23:57:23.556Z,98.48
2018-04-14T23:59:51.160Z,97.78
